createdAt,value
2019-05-26T00:00:00.891Z,9.40
2019-05-26T00:02:28.204Z,9.30
2019-05-26T00:04:55.551Z,9.30
2019-05-26T00:07:30.580Z,9.30
2019-05-26T00:09:51.917Z,9.20
2019-05-26T00:12:19.872Z,9.20
2019-05-26T00:14:47.065Z,9.20
2019-05-26T00:17:14.419Z,9.10
2019-05-26T00:19:41.771Z,9.10
2019-05-26T00:22:09.086Z,9.10
2019-05-26T00:24:36.430Z,9.10
2019-05-26T00:27:04.025Z,9.10
2019-05-26T00:29:31.361Z,9.10
2019-05-26T00:31:58.586Z,9.00
2019-05-26T00:34:25.831Z,9.00
2019-05-26T00:36:53.136Z,8.90
2019-05-26T00:39:20.495Z,9.00
2019-05-26T00:41:47.807Z,8.90
2019-05-26T00:44:15.051Z,8.90
2019-05-26T00:46:42.260Z,8.90
2019-05-26T00:49:09.621Z,8.90
2019-05-26T00:51:36.933Z,8.90
2019-05-26T00:54:04.263Z,8.80
2019-05-26T00:56:31.608Z,8.80
2019-05-26T00:58:58.956Z,8.90
2019-05-26T01:01:26.204Z,8.90
2019-05-26T01:03:53.519Z,8.90
2019-05-26T01:06:20.651Z,8.90
2019-05-26T01:08:47.868Z,8.90
2019-05-26T01:11:15.214Z,8.90
2019-05-26T01:13:42.561Z,8.90
2019-05-26T01:16:09.993Z,8.90
2019-05-26T01:18:37.425Z,8.90
2019-05-26T01:21:04.861Z,8.80
2019-05-26T01:23:32.196Z,8.90
2019-05-26T01:25:59.428Z,8.80
2019-05-26T01:28:26.777Z,8.90
2019-05-26T01:30:54.194Z,8.90
2019-05-26T01:33:21.553Z,8.90
2019-05-26T01:35:49.488Z,8.90
2019-05-26T01:38:23.902Z,8.90
2019-05-26T01:40:47.417Z,8.90
2019-05-26T01:43:14.777Z,8.90
2019-05-26T01:45:42.044Z,8.90
2019-05-26T01:48:09.360Z,9.00
2019-05-26T01:50:36.682Z,9.00
2019-05-26T01:53:04.913Z,9.00
2019-05-26T01:55:32.345Z,8.90
2019-05-26T01:57:59.979Z,8.90
2019-05-26T02:00:27.323Z,8.90
2019-05-26T02:02:54.728Z,8.80
2019-05-26T02:05:21.960Z,8.80
2019-05-26T02:07:49.313Z,8.80
2019-05-26T02:10:16.627Z,8.80
2019-05-26T02:12:43.878Z,8.80
2019-05-26T02:15:11.593Z,8.70
2019-05-26T02:17:38.945Z,8.70
2019-05-26T02:20:07.051Z,8.70
2019-05-26T02:22:34.200Z,8.70
2019-05-26T02:25:01.512Z,8.70
2019-05-26T02:27:28.977Z,8.70
2019-05-26T02:29:56.323Z,8.70
2019-05-26T02:32:23.635Z,8.70
2019-05-26T02:34:50.958Z,8.70
2019-05-26T02:37:18.276Z,8.70
2019-05-26T02:39:45.663Z,8.60
2019-05-26T02:42:12.972Z,8.70
2019-05-26T02:44:40.316Z,8.60
2019-05-26T02:47:07.670Z,8.50
2019-05-26T02:49:35.023Z,8.50
2019-05-26T02:52:02.373Z,8.60
2019-05-26T02:54:29.690Z,8.60
2019-05-26T02:56:57.459Z,8.50
2019-05-26T02:59:24.797Z,8.50
2019-05-26T03:02:03.018Z,8.50
2019-05-26T03:04:21.458Z,8.50
2019-05-26T03:06:48.888Z,8.50
2019-05-26T03:09:23.224Z,8.50
2019-05-26T03:11:49.583Z,8.40
2019-05-26T03:14:18.582Z,8.40
2019-05-26T03:16:46.788Z,8.30
2019-05-26T03:19:17.541Z,8.30
2019-05-26T03:21:47.812Z,8.20
2019-05-26T03:24:17.280Z,8.10
2019-05-26T03:26:44.940Z,8.10
2019-05-26T03:29:12.278Z,8.10
2019-05-26T03:31:39.673Z,8.10
2019-05-26T03:34:06.948Z,8.10
2019-05-26T03:36:34.271Z,8.10
2019-05-26T03:39:01.507Z,8.10
2019-05-26T03:41:28.845Z,8.10
2019-05-26T03:43:56.148Z,8.20
2019-05-26T03:46:23.452Z,8.20
2019-05-26T03:48:50.763Z,8.20
2019-05-26T03:51:18.305Z,8.30
2019-05-26T03:53:45.764Z,8.30
2019-05-26T03:56:13.063Z,8.30
2019-05-26T03:58:40.439Z,8.30
2019-05-26T04:01:07.741Z,8.40
2019-05-26T04:03:35.084Z,8.50
2019-05-26T04:06:02.439Z,8.50
2019-05-26T04:08:29.776Z,8.50
2019-05-26T04:10:57.233Z,8.60
2019-05-26T04:13:24.537Z,8.70
2019-05-26T04:15:51.800Z,8.70
2019-05-26T04:18:19.118Z,8.60
2019-05-26T04:20:46.465Z,8.50
2019-05-26T04:23:13.825Z,8.60
2019-05-26T04:25:41.149Z,8.60
2019-05-26T04:28:08.352Z,8.60
2019-05-26T04:30:35.700Z,8.70
2019-05-26T04:33:03.149Z,8.70
2019-05-26T04:35:30.493Z,8.70
2019-05-26T04:37:57.640Z,8.80
2019-05-26T04:40:27.472Z,8.80
2019-05-26T04:42:54.137Z,8.80
2019-05-26T04:45:21.679Z,8.80
2019-05-26T04:47:48.992Z,8.80
2019-05-26T04:50:16.287Z,8.80
2019-05-26T04:53:02.059Z,8.80
2019-05-26T04:55:12.731Z,8.90
2019-05-26T04:57:40.067Z,8.90
2019-05-26T05:00:07.967Z,8.90
2019-05-26T05:02:35.331Z,8.90
2019-05-26T05:05:02.760Z,8.90
2019-05-26T05:07:30.043Z,8.90
2019-05-26T05:09:57.493Z,8.90
2019-05-26T05:12:24.925Z,8.90
2019-05-26T05:14:52.274Z,8.90
2019-05-26T05:17:19.847Z,9.00
2019-05-26T05:19:47.150Z,9.00
2019-05-26T05:22:14.392Z,9.00
2019-05-26T05:24:41.702Z,9.00
2019-05-26T05:27:08.951Z,9.00
2019-05-26T05:29:36.267Z,9.10
2019-05-26T05:32:03.732Z,9.10
2019-05-26T05:34:31.180Z,9.00
2019-05-26T05:36:58.524Z,9.00
2019-05-26T05:39:25.741Z,9.00
2019-05-26T05:41:53.226Z,9.10
2019-05-26T05:44:20.693Z,9.20
2019-05-26T05:46:48.068Z,9.30
2019-05-26T05:49:15.404Z,9.30
2019-05-26T05:51:42.727Z,9.20
2019-05-26T05:54:10.070Z,9.20
2019-05-26T05:56:37.787Z,9.10
2019-05-26T05:59:05.037Z,9.20
2019-05-26T06:01:32.357Z,9.30
2019-05-26T06:03:59.573Z,9.40
2019-05-26T06:06:26.825Z,9.50
2019-05-26T06:08:54.135Z,9.60
2019-05-26T06:11:21.493Z,9.70
2019-05-26T06:13:48.818Z,9.80
2019-05-26T06:16:16.161Z,9.90
2019-05-26T06:18:43.392Z,9.90
2019-05-26T06:21:10.731Z,9.90
2019-05-26T06:23:38.075Z,9.80
2019-05-26T06:26:05.361Z,9.70
2019-05-26T06:28:32.793Z,9.80
2019-05-26T06:31:00.005Z,9.80
2019-05-26T06:33:27.444Z,9.90
2019-05-26T06:35:54.769Z,10.00
2019-05-26T06:38:22.079Z,10.00
2019-05-26T06:40:49.322Z,10.10
2019-05-26T06:43:16.669Z,10.20
2019-05-26T06:45:43.877Z,10.20
2019-05-26T06:48:11.332Z,10.30
2019-05-26T06:50:38.646Z,10.30
2019-05-26T06:53:05.987Z,10.20
2019-05-26T06:55:33.265Z,10.20
2019-05-26T06:58:00.476Z,10.20
2019-05-26T07:00:27.836Z,10.30
2019-05-26T07:02:55.346Z,10.20
2019-05-26T07:05:22.768Z,10.20
2019-05-26T07:07:50.188Z,10.10
2019-05-26T07:10:17.537Z,10.00
2019-05-26T07:12:44.866Z,9.90
2019-05-26T07:15:12.572Z,9.90
2019-05-26T07:17:39.925Z,9.90
2019-05-26T07:20:07.575Z,9.90
2019-05-26T07:22:34.689Z,9.80
2019-05-26T07:25:02.042Z,9.80
2019-05-26T07:27:29.347Z,9.90
2019-05-26T07:29:56.817Z,10.00
2019-05-26T07:32:24.153Z,10.10
2019-05-26T07:34:51.681Z,10.20
2019-05-26T07:37:19.020Z,10.20
2019-05-26T07:39:46.224Z,10.10
2019-05-26T07:42:13.565Z,10.10
2019-05-26T07:44:40.811Z,10.20
2019-05-26T07:47:08.030Z,10.20
2019-05-26T07:49:35.682Z,10.30
2019-05-26T07:52:03.040Z,10.40
2019-05-26T07:54:30.367Z,10.50
2019-05-26T07:56:57.737Z,10.60
2019-05-26T07:59:25.100Z,10.70
2019-05-26T08:01:52.490Z,10.80
2019-05-26T08:04:19.816Z,10.80
2019-05-26T08:06:47.040Z,10.80
2019-05-26T08:09:14.579Z,10.70
2019-05-26T08:11:41.871Z,10.60
2019-05-26T08:14:08.995Z,10.50
2019-05-26T08:16:36.525Z,10.40
2019-05-26T08:19:03.760Z,10.40
2019-05-26T08:21:31.205Z,10.40
2019-05-26T08:23:58.422Z,10.40
2019-05-26T08:26:25.669Z,10.40
2019-05-26T08:28:53.736Z,10.50
2019-05-26T08:31:21.353Z,10.50
2019-05-26T08:33:48.668Z,10.60
2019-05-26T08:36:16.020Z,10.70
2019-05-26T08:38:43.236Z,10.70
2019-05-26T08:41:10.468Z,10.70
2019-05-26T08:43:37.811Z,10.70
2019-05-26T08:46:05.057Z,10.80
2019-05-26T08:48:32.374Z,10.90
2019-05-26T08:50:59.717Z,10.80
2019-05-26T08:53:27.052Z,10.80
2019-05-26T08:55:54.291Z,10.70
2019-05-26T08:58:21.507Z,10.70
2019-05-26T09:00:48.754Z,10.80
2019-05-26T09:03:16.098Z,10.80
2019-05-26T09:05:43.470Z,10.70
2019-05-26T09:08:10.784Z,10.80
2019-05-26T09:10:38.031Z,10.70
2019-05-26T09:13:05.375Z,10.70
2019-05-26T09:15:32.731Z,10.60
2019-05-26T09:18:00.072Z,10.60
2019-05-26T09:20:27.416Z,10.50
2019-05-26T09:22:54.768Z,10.50
2019-05-26T09:25:22.124Z,10.40
2019-05-26T09:27:49.456Z,10.40
2019-05-26T09:30:19.056Z,10.40
2019-05-26T09:32:46.795Z,10.60
2019-05-26T09:35:15.312Z,10.80
2019-05-26T09:37:42.550Z,11.00
2019-05-26T09:40:09.889Z,11.00
2019-05-26T09:42:37.324Z,10.90
2019-05-26T09:45:05.584Z,10.90
2019-05-26T09:47:32.900Z,10.60
2019-05-26T09:50:00.257Z,10.70
2019-05-26T09:52:27.585Z,10.90
2019-05-26T09:54:54.824Z,11.20
2019-05-26T09:57:22.144Z,11.30
2019-05-26T09:59:49.352Z,11.50
2019-05-26T10:02:16.612Z,11.70
2019-05-26T10:04:43.920Z,11.80
2019-05-26T10:07:15.689Z,12.10
2019-05-26T10:09:40.421Z,12.30
2019-05-26T10:12:07.720Z,12.40
2019-05-26T10:14:34.966Z,12.10
2019-05-26T10:17:02.416Z,11.80
2019-05-26T10:19:29.737Z,11.60
2019-05-26T10:21:56.983Z,11.60
2019-05-26T10:24:24.332Z,11.50
2019-05-26T10:26:51.636Z,11.40
2019-05-26T10:29:18.804Z,11.30
2019-05-26T10:31:46.160Z,11.30
2019-05-26T10:34:13.860Z,11.20
2019-05-26T10:36:41.564Z,11.40
2019-05-26T10:39:08.895Z,11.50
2019-05-26T10:41:36.231Z,11.80
2019-05-26T10:44:03.833Z,12.50
2019-05-26T10:46:31.178Z,12.90
2019-05-26T10:48:58.543Z,12.70
2019-05-26T10:51:25.817Z,12.10
2019-05-26T10:53:53.027Z,11.80
2019-05-26T10:56:20.393Z,11.70
2019-05-26T10:58:47.625Z,11.80
2019-05-26T11:01:14.991Z,11.80
2019-05-26T11:03:42.367Z,11.90
2019-05-26T11:06:09.720Z,12.00
2019-05-26T11:08:36.949Z,12.00
2019-05-26T11:11:04.284Z,12.30
2019-05-26T11:13:31.389Z,12.20
2019-05-26T11:15:58.725Z,12.40
2019-05-26T11:18:26.044Z,12.50
2019-05-26T11:20:53.396Z,12.70
2019-05-26T11:23:20.639Z,12.80
2019-05-26T11:25:47.963Z,12.80
2019-05-26T11:28:15.094Z,12.50
2019-05-26T11:30:42.464Z,12.50
2019-05-26T11:33:09.782Z,12.70
2019-05-26T11:35:36.979Z,12.80
2019-05-26T11:38:04.320Z,12.60
2019-05-26T11:40:31.768Z,12.70
2019-05-26T11:42:59.024Z,12.80
2019-05-26T11:45:26.335Z,13.00
2019-05-26T11:47:53.571Z,12.90
2019-05-26T11:50:21.035Z,13.10
2019-05-26T11:52:48.403Z,13.30
2019-05-26T11:55:15.905Z,13.50
2019-05-26T11:57:43.278Z,13.50
2019-05-26T12:00:13.577Z,13.40
2019-05-26T12:02:41.155Z,13.20
2019-05-26T12:05:08.596Z,13.20
2019-05-26T12:07:36.008Z,13.40
2019-05-26T12:10:06.011Z,13.20
2019-05-26T12:12:33.420Z,13.00
2019-05-26T12:15:00.771Z,12.90
2019-05-26T12:17:28.087Z,12.80
2019-05-26T12:19:55.319Z,13.00
2019-05-26T12:22:22.665Z,13.00
2019-05-26T12:24:49.895Z,13.10
2019-05-26T12:27:17.131Z,13.40
2019-05-26T12:29:44.509Z,13.80
2019-05-26T12:32:11.812Z,13.80
2019-05-26T12:34:39.217Z,13.40
2019-05-26T12:37:06.478Z,13.00
2019-05-26T12:39:33.875Z,12.70
2019-05-26T12:42:01.140Z,12.70
2019-05-26T12:44:28.648Z,12.80
2019-05-26T12:46:55.979Z,12.90
2019-05-26T12:49:23.311Z,12.70
2019-05-26T12:51:50.601Z,12.30
2019-05-26T12:54:17.881Z,12.00
2019-05-26T12:56:45.266Z,11.90
2019-05-26T12:59:12.585Z,11.70
2019-05-26T13:01:40.140Z,11.50
2019-05-26T13:04:07.521Z,11.50
2019-05-26T13:06:34.882Z,11.40
2019-05-26T13:09:03.941Z,11.50
2019-05-26T13:11:31.147Z,11.60
2019-05-26T13:13:58.483Z,11.70
2019-05-26T13:16:25.647Z,12.00
2019-05-26T13:18:52.875Z,12.30
2019-05-26T13:21:20.256Z,12.60
2019-05-26T13:23:47.778Z,12.40
2019-05-26T13:26:15.003Z,12.40
2019-05-26T13:28:42.254Z,12.70
2019-05-26T13:31:09.597Z,13.10
2019-05-26T13:33:36.916Z,13.40
2019-05-26T13:36:04.249Z,13.80
2019-05-26T13:38:31.593Z,14.20
2019-05-26T13:40:58.917Z,14.10
2019-05-26T13:43:26.159Z,13.80
2019-05-26T13:45:53.371Z,13.90
2019-05-26T13:48:20.741Z,14.00
2019-05-26T13:50:48.057Z,14.30
2019-05-26T13:53:15.431Z,14.10
2019-05-26T13:55:42.661Z,13.90
2019-05-26T13:58:09.984Z,13.90
2019-05-26T14:00:37.315Z,13.90
2019-05-26T14:03:04.884Z,13.90
2019-05-26T14:05:32.218Z,13.90
2019-05-26T14:07:59.563Z,14.00
2019-05-26T14:10:32.614Z,14.20
2019-05-26T14:12:59.976Z,14.10
2019-05-26T14:15:37.318Z,14.10
2019-05-26T14:17:57.750Z,14.00
2019-05-26T14:20:33.333Z,14.20
2019-05-26T14:23:00.751Z,14.20
2019-05-26T14:25:28.001Z,14.10
2019-05-26T14:27:55.311Z,14.00
2019-05-26T14:30:22.928Z,13.90
2019-05-26T14:32:50.182Z,13.80
2019-05-26T14:35:17.548Z,13.60
2019-05-26T14:37:44.963Z,13.40
2019-05-26T14:40:12.654Z,13.60
2019-05-26T14:42:39.975Z,13.80
2019-05-26T14:45:07.444Z,13.60
2019-05-26T14:47:34.779Z,13.60
2019-05-26T14:50:02.058Z,13.80
2019-05-26T14:52:29.315Z,13.70
2019-05-26T14:54:56.635Z,13.80
2019-05-26T14:57:24.039Z,14.00
2019-05-26T14:59:51.328Z,14.10
2019-05-26T15:02:18.677Z,13.90
2019-05-26T15:04:46.028Z,13.80
2019-05-26T15:07:13.267Z,13.70
2019-05-26T15:09:40.514Z,13.40
2019-05-26T15:12:07.851Z,13.10
2019-05-26T15:14:35.219Z,13.10
2019-05-26T15:17:02.644Z,13.00
2019-05-26T15:19:30.001Z,13.00
2019-05-26T15:21:57.428Z,13.20
2019-05-26T15:24:24.766Z,13.00
2019-05-26T15:26:51.986Z,13.20
2019-05-26T15:29:19.300Z,13.30
2019-05-26T15:31:46.559Z,13.30
2019-05-26T15:34:13.884Z,13.20
2019-05-26T15:36:41.323Z,13.20
2019-05-26T15:39:08.639Z,13.10
2019-05-26T15:41:35.984Z,12.90
2019-05-26T15:44:03.854Z,12.70
2019-05-26T15:46:31.097Z,12.60
2019-05-26T15:48:58.327Z,12.50
2019-05-26T15:51:25.668Z,12.40
2019-05-26T15:53:52.987Z,12.20
2019-05-26T15:56:20.461Z,12.30
2019-05-26T15:58:47.760Z,12.30
2019-05-26T16:01:15.087Z,12.20
2019-05-26T16:03:42.345Z,12.20
2019-05-26T16:06:09.835Z,12.10
2019-05-26T16:08:37.087Z,12.10
2019-05-26T16:11:04.388Z,12.00
2019-05-26T16:13:31.748Z,12.00
2019-05-26T16:15:59.095Z,12.00
2019-05-26T16:18:26.444Z,12.10
2019-05-26T16:21:02.658Z,12.10
2019-05-26T16:23:22.928Z,12.10
2019-05-26T16:25:50.144Z,12.00
2019-05-26T16:28:17.463Z,12.10
2019-05-26T16:30:44.822Z,12.20
2019-05-26T16:33:12.080Z,12.40
2019-05-26T16:35:39.804Z,12.20
2019-05-26T16:38:07.020Z,12.20
2019-05-26T16:40:34.353Z,12.10
2019-05-26T16:43:01.844Z,12.00
2019-05-26T16:45:29.163Z,11.90
2019-05-26T16:47:56.479Z,11.90
2019-05-26T16:50:23.873Z,11.80
2019-05-26T16:52:54.428Z,11.90
2019-05-26T16:55:20.393Z,12.00
2019-05-26T16:57:47.712Z,12.00
2019-05-26T17:00:15.169Z,12.00
2019-05-26T17:02:42.471Z,12.00
2019-05-26T17:05:10.007Z,11.80
2019-05-26T17:07:37.270Z,11.70
2019-05-26T17:10:06.967Z,11.60
2019-05-26T17:12:34.210Z,11.50
2019-05-26T17:15:01.456Z,11.40
2019-05-26T17:17:28.868Z,11.40
2019-05-26T17:19:56.214Z,11.30
2019-05-26T17:22:23.453Z,11.30
2019-05-26T17:24:50.883Z,11.20
2019-05-26T17:27:18.145Z,11.20
2019-05-26T17:29:45.891Z,11.20
2019-05-26T17:32:13.203Z,11.20
2019-05-26T17:34:40.547Z,11.30
2019-05-26T17:37:07.902Z,11.30
2019-05-26T17:39:35.343Z,11.20
2019-05-26T17:42:02.536Z,11.20
2019-05-26T17:44:30.030Z,11.10
2019-05-26T17:46:57.244Z,11.10
2019-05-26T17:49:24.452Z,11.10
2019-05-26T17:51:51.833Z,11.10
2019-05-26T17:54:19.128Z,11.10
2019-05-26T17:56:46.485Z,11.00
2019-05-26T17:59:13.921Z,11.00
2019-05-26T18:01:41.274Z,10.90
2019-05-26T18:04:08.496Z,10.90
2019-05-26T18:06:35.979Z,10.90
2019-05-26T18:09:05.705Z,11.00
2019-05-26T18:11:33.273Z,11.20
2019-05-26T18:14:00.593Z,11.30
2019-05-26T18:16:27.931Z,11.40
2019-05-26T18:18:55.246Z,11.30
2019-05-26T18:21:22.595Z,11.30
2019-05-26T18:23:49.799Z,11.40
2019-05-26T18:26:17.152Z,11.40
2019-05-26T18:28:44.519Z,11.50
2019-05-26T18:31:11.744Z,11.50
2019-05-26T18:33:39.031Z,11.40
2019-05-26T18:36:06.343Z,11.50
2019-05-26T18:38:33.727Z,11.40
2019-05-26T18:41:01.035Z,11.30
2019-05-26T18:43:32.764Z,11.10
2019-05-26T18:45:59.955Z,11.00
2019-05-26T18:48:27.413Z,10.80
2019-05-26T18:50:54.845Z,10.70
2019-05-26T18:53:22.126Z,10.60
2019-05-26T18:55:49.391Z,10.50
2019-05-26T18:58:16.656Z,10.30
2019-05-26T19:00:43.991Z,10.20
2019-05-26T19:03:11.242Z,10.30
2019-05-26T19:05:38.760Z,10.30
2019-05-26T19:08:06.897Z,10.30
2019-05-26T19:10:34.249Z,10.20
2019-05-26T19:13:01.564Z,10.10
2019-05-26T19:15:29.017Z,10.00
2019-05-26T19:17:56.260Z,9.90
2019-05-26T19:20:24.155Z,10.00
2019-05-26T19:22:53.396Z,10.00
2019-05-26T19:25:20.595Z,10.10
2019-05-26T19:27:47.861Z,10.10
2019-05-26T19:30:16.117Z,10.20
2019-05-26T19:32:43.418Z,10.20
2019-05-26T19:35:10.908Z,10.20
2019-05-26T19:37:38.220Z,10.10
2019-05-26T19:40:06.147Z,10.00
2019-05-26T19:42:33.351Z,9.90
2019-05-26T19:45:00.595Z,9.70
2019-05-26T19:47:28.018Z,9.50
2019-05-26T19:49:55.280Z,9.40
2019-05-26T19:52:22.615Z,9.20
2019-05-26T19:54:49.866Z,9.10
2019-05-26T19:57:17.448Z,9.00
2019-05-26T19:59:44.780Z,8.80
2019-05-26T20:02:18.351Z,8.60
2019-05-26T20:04:41.163Z,8.60
2019-05-26T20:07:08.608Z,8.50
2019-05-26T20:09:35.954Z,8.60
2019-05-26T20:12:03.710Z,8.60
2019-05-26T20:14:31.047Z,8.50
2019-05-26T20:16:58.272Z,8.40
2019-05-26T20:19:25.599Z,8.30
2019-05-26T20:21:52.911Z,8.10
2019-05-26T20:24:20.256Z,8.00
2019-05-26T20:26:47.610Z,7.80
2019-05-26T20:29:14.944Z,7.60
2019-05-26T20:31:44.745Z,7.40
2019-05-26T20:34:12.077Z,7.20
2019-05-26T20:36:39.431Z,7.00
2019-05-26T20:39:08.104Z,7.10
2019-05-26T20:41:35.443Z,7.20
2019-05-26T20:44:02.768Z,7.20
2019-05-26T20:46:30.012Z,7.10
2019-05-26T20:48:57.540Z,7.20
2019-05-26T20:51:24.895Z,7.20
2019-05-26T20:53:52.148Z,7.20
2019-05-26T20:56:19.496Z,7.20
2019-05-26T20:58:46.819Z,7.30
2019-05-26T21:01:14.185Z,7.40
2019-05-26T21:03:41.601Z,7.40
2019-05-26T21:06:08.973Z,7.30
2019-05-26T21:08:36.326Z,7.20
2019-05-26T21:11:03.653Z,7.20
2019-05-26T21:13:31.005Z,7.10
2019-05-26T21:15:58.359Z,7.10
2019-05-26T21:18:25.713Z,7.00
2019-05-26T21:20:53.135Z,7.00
2019-05-26T21:23:22.624Z,6.90
2019-05-26T21:25:49.538Z,6.90
2019-05-26T21:28:16.905Z,6.90
2019-05-26T21:30:44.119Z,6.90
2019-05-26T21:33:11.441Z,6.80
2019-05-26T21:35:38.797Z,6.80
2019-05-26T21:38:06.023Z,6.70
2019-05-26T21:40:33.293Z,6.70
2019-05-26T21:43:00.627Z,6.70
2019-05-26T21:45:29.423Z,6.60
2019-05-26T21:47:56.895Z,6.60
2019-05-26T21:50:24.114Z,6.70
2019-05-26T21:52:51.432Z,6.70
2019-05-26T21:55:18.797Z,6.80
2019-05-26T21:57:46.107Z,6.90
2019-05-26T22:00:17.932Z,7.10
2019-05-26T22:02:45.212Z,7.10
2019-05-26T22:05:12.924Z,7.10
2019-05-26T22:07:40.542Z,7.10
2019-05-26T22:10:07.971Z,7.20
2019-05-26T22:12:35.183Z,7.30
2019-05-26T22:15:02.540Z,7.30
2019-05-26T22:17:32.334Z,7.20
2019-05-26T22:20:00.030Z,7.20
2019-05-26T22:22:29.096Z,7.10
2019-05-26T22:24:56.802Z,7.10
2019-05-26T22:27:24.456Z,7.10
2019-05-26T22:29:52.311Z,7.10
2019-05-26T22:32:21.227Z,7.00
2019-05-26T22:34:50.918Z,7.10
2019-05-26T22:37:20.396Z,7.30
2019-05-26T22:39:49.864Z,7.50
2019-05-26T22:42:17.682Z,7.60
2019-05-26T22:44:45.871Z,7.60
2019-05-26T22:47:16.069Z,7.60
2019-05-26T22:49:43.723Z,7.50
2019-05-26T22:52:11.308Z,7.50
2019-05-26T22:54:39.898Z,7.60
2019-05-26T22:57:08.992Z,7.60
2019-05-26T22:59:36.781Z,7.60
2019-05-26T23:02:04.864Z,7.70
2019-05-26T23:04:33.837Z,7.80
2019-05-26T23:07:03.338Z,7.80
2019-05-26T23:09:32.064Z,7.80
2019-05-26T23:12:01.763Z,7.80
2019-05-26T23:14:29.662Z,7.90
2019-05-26T23:16:59.358Z,7.90
2019-05-26T23:19:29.831Z,7.90
2019-05-26T23:21:57.660Z,7.90
2019-05-26T23:24:27.040Z,8.00
2019-05-26T23:26:54.397Z,8.10
2019-05-26T23:29:21.806Z,8.30
2019-05-26T23:31:49.313Z,8.50
2019-05-26T23:34:16.584Z,8.60
2019-05-26T23:36:43.832Z,8.60
2019-05-26T23:39:11.166Z,8.50
2019-05-26T23:41:38.496Z,8.40
2019-05-26T23:44:05.709Z,8.20
2019-05-26T23:46:33.052Z,8.10
2019-05-26T23:49:00.391Z,8.00
2019-05-26T23:51:27.735Z,7.90
2019-05-26T23:53:54.944Z,7.90
2019-05-26T23:56:22.286Z,7.90
2019-05-26T23:58:49.619Z,7.90
